Terminal Aerodrome Forecast
Issued by NWS St Louis, MO

Home | Current Version | Previous Version | Text Only | Print | Product List | Glossary On
Versions: 1 2 3 4 5 6 7 8 9 10 11 12 13 14 15 16 17 18 19 20 21 22 23 24 25 26
139
FTUS43 KLSX 230310 AAA
TAFSTL
TAF AMD
KSTL 230310Z 2303/2406 10010KT P6SM BKN200
     FM230900 12010KT P6SM OVC060
     FM231400 13010KT P6SM VCSH OVC040
     FM231700 14012KT P6SM BKN040
     FM232300 16012KT P6SM SCT150=

USA.gov is the U.S. government's official web portal to all federal, state and local government web resources and services.